sensor_id;sensor_type;location;lat;lon;timestamp;P1;P2;P0
47709;PMS7003;33473;51.640;5.892;2022-12-07T00:04:11;16.69;17.45;11.45
47709;PMS7003;33473;51.640;5.892;2022-12-07T00:17:31;17.89;18.87;12.54
47709;PMS7003;33473;51.640;5.892;2022-12-07T00:30:51;18.37;19.3;12.11
47709;PMS7003;33473;51.640;5.892;2022-12-07T00:44:10;17.89;18.1;12.0
47709;PMS7003;33473;51.640;5.892;2022-12-07T00:57:30;20.65;20.61;13.2
47709;PMS7003;33473;51.640;5.892;2022-12-07T01:10:50;20.17;20.28;12.54
47709;PMS7003;33473;51.640;5.892;2022-12-07T01:24:09;21.61;20.94;12.98
47709;PMS7003;33473;51.640;5.892;2022-12-07T01:37:29;22.21;20.72;13.31
47709;PMS7003;33473;51.640;5.892;2022-12-07T01:50:49;22.57;20.94;13.2
47709;PMS7003;33473;51.640;5.892;2022-12-07T02:04:08;21.73;21.37;13.2
47709;PMS7003;33473;51.640;5.892;2022-12-07T02:17:28;21.13;20.72;12.76
47709;PMS7003;33473;51.640;5.892;2022-12-07T02:30:48;19.09;19.85;12.44
47709;PMS7003;33473;51.640;5.892;2022-12-07T02:44:07;20.89;20.61;12.54
47709;PMS7003;33473;51.640;5.892;2022-12-07T02:57:27;20.65;20.5;12.54
47709;PMS7003;33473;51.640;5.892;2022-12-07T03:10:47;17.77;18.76;11.45
47709;PMS7003;33473;51.640;5.892;2022-12-07T03:24:06;20.41;19.52;11.35
47709;PMS7003;33473;51.640;5.892;2022-12-07T03:37:26;20.53;20.28;11.89
47709;PMS7003;33473;51.640;5.892;2022-12-07T03:50:46;19.09;19.3;11.67
47709;PMS7003;33473;51.640;5.892;2022-12-07T04:04:05;19.93;17.78;11.02
47709;PMS7003;33473;51.640;5.892;2022-12-07T04:17:25;16.81;17.67;10.47
47709;PMS7003;33473;51.640;5.892;2022-12-07T04:30:45;13.45;15.16;9.6
47709;PMS7003;33473;51.640;5.892;2022-12-07T04:44:04;12.25;14.29;9.6
47709;PMS7003;33473;51.640;5.892;2022-12-07T04:57:24;11.41;12.98;8.4
47709;PMS7003;33473;51.640;5.892;2022-12-07T05:10:44;9.73;10.91;6.55
47709;PMS7003;33473;51.640;5.892;2022-12-07T05:24:03;9.49;9.27;6.0
47709;PMS7003;33473;51.640;5.892;2022-12-07T05:37:23;7.33;9.17;6.22
47709;PMS7003;33473;51.640;5.892;2022-12-07T05:50:43;7.09;9.17;6.11
47709;PMS7003;33473;51.640;5.892;2022-12-07T06:04:02;8.17;10.36;7.2
47709;PMS7003;33473;51.640;5.892;2022-12-07T06:17:22;9.61;10.47;6.77
47709;PMS7003;33473;51.640;5.892;2022-12-07T06:30:42;8.89;11.02;6.99
47709;PMS7003;33473;51.640;5.892;2022-12-07T06:44:01;10.33;12.33;7.53
47709;PMS7003;33473;51.640;5.892;2022-12-07T06:57:21;10.21;11.02;7.09
47709;PMS7003;33473;51.640;5.892;2022-12-07T07:10:41;9.73;11.02;6.99
47709;PMS7003;33473;51.640;5.892;2022-12-07T07:24:00;9.61;11.13;6.88
47709;PMS7003;33473;51.640;5.892;2022-12-07T07:37:20;8.41;10.69;6.66
47709;PMS7003;33473;51.640;5.892;2022-12-07T07:50:40;10.21;11.35;7.64
47709;PMS7003;33473;51.640;5.892;2022-12-07T08:03:59;13.33;12.76;7.75
47709;PMS7003;33473;51.640;5.892;2022-12-07T08:17:19;10.33;12.0;7.86
47709;PMS7003;33473;51.640;5.892;2022-12-07T08:30:39;8.77;10.91;7.09
47709;PMS7003;33473;51.640;5.892;2022-12-07T08:43:58;9.85;11.45;7.53
47709;PMS7003;33473;51.640;5.892;2022-12-07T08:57:18;11.65;13.31;8.73
47709;PMS7003;33473;51.640;5.892;2022-12-07T09:10:38;12.73;13.74;9.06
47709;PMS7003;33473;51.640;5.892;2022-12-07T09:23:57;13.81;15.81;9.82
47709;PMS7003;33473;51.640;5.892;2022-12-07T09:37:17;16.45;16.9;10.26
47709;PMS7003;33473;51.640;5.892;2022-12-07T09:50:37;15.49;14.94;9.27
47709;PMS7003;33473;51.640;5.892;2022-12-07T10:03:56;11.53;12.65;8.73
47709;PMS7003;33473;51.640;5.892;2022-12-07T10:17:16;12.01;13.74;8.51
47709;PMS7003;33473;51.640;5.892;2022-12-07T10:30:36;6.97;9.38;6.22
47709;PMS7003;33473;51.640;5.892;2022-12-07T10:43:55;3.48;6.22;4.15
47709;PMS7003;33473;51.640;5.892;2022-12-07T10:57:15;3.0;5.46;3.82
47709;PMS7003;33473;51.640;5.892;2022-12-07T11:10:35;1.92;4.7;3.06
47709;PMS7003;33473;51.640;5.892;2022-12-07T11:23:54;1.44;4.48;2.95
47709;PMS7003;33473;51.640;5.892;2022-12-07T11:37:14;0.24;3.28;2.19
47709;PMS7003;33473;51.640;5.892;2022-12-07T11:50:34;1.44;3.39;2.52
47709;PMS7003;33473;51.640;5.892;2022-12-07T12:03:53;4.33;4.04;2.73
47709;PMS7003;33473;51.640;5.892;2022-12-07T12:17:13;1.8;3.93;2.84
47709;PMS7003;33473;51.640;5.892;2022-12-07T12:30:33;0.84;3.61;2.73
47709;PMS7003;33473;51.640;5.892;2022-12-07T12:43:53;2.04;4.48;3.5
47709;PMS7003;33473;51.640;5.892;2022-12-07T12:57:12;2.64;4.8;3.5
47709;PMS7003;33473;51.640;5.892;2022-12-07T13:10:32;3.24;4.91;3.61
47709;PMS7003;33473;51.640;5.892;2022-12-07T13:23:52;0.01;2.95;2.3
47709;PMS7003;33473;51.640;5.892;2022-12-07T13:37:11;0.96;3.06;1.97
47709;PMS7003;33473;51.640;5.892;2022-12-07T13:50:31;0.01;2.19;1.54
47709;PMS7003;33473;51.640;5.892;2022-12-07T14:03:51;0.01;1.97;1.43
47709;PMS7003;33473;51.640;5.892;2022-12-07T14:17:10;0.01;1.97;1.43
47709;PMS7003;33473;51.640;5.892;2022-12-07T14:30:30;0.01;1.97;1.54
47709;PMS7003;33473;51.640;5.892;2022-12-07T14:43:50;0.01;2.84;2.08
47709;PMS7003;33473;51.640;5.892;2022-12-07T14:57:09;0.48;3.28;2.52
47709;PMS7003;33473;51.640;5.892;2022-12-07T15:10:29;0.96;2.84;2.19
47709;PMS7003;33473;51.640;5.892;2022-12-07T15:23:49;0.01;1.75;1.32
47709;PMS7003;33473;51.640;5.892;2022-12-07T15:37:08;0.01;1.86;1.43
47709;PMS7003;33473;51.640;5.892;2022-12-07T15:50:28;0.01;1.97;
47709;PMS7003;33473;51.640;5.892;2022-12-07T16:03:48;0.0;2.08;1.86
47709;PMS7003;33473;51.640;5.892;2022-12-07T16:17:07;0.01;1.64;1.43
47709;PMS7003;33473;51.640;5.892;2022-12-07T16:30:27;0.01;2.3;1.75
47709;PMS7003;33473;51.640;5.892;2022-12-07T16:43:47;0.72;3.61;2.84
47709;PMS7003;33473;51.640;5.892;2022-12-07T16:57:07;1.44;4.59;3.28
47709;PMS7003;33473;51.640;5.892;2022-12-07T17:10:26;4.33;6.22;4.7
47709;PMS7003;33473;51.640;5.892;2022-12-07T17:23:46;5.77;8.29;5.02
47709;PMS7003;33473;51.640;5.892;2022-12-07T17:37:06;5.77;7.97;5.24
47709;PMS7003;33473;51.640;5.892;2022-12-07T17:50:25;8.89;10.69;6.77
47709;PMS7003;33473;51.640;5.892;2022-12-07T18:03:45;9.37;10.91;7.2
47709;PMS7003;33473;51.640;5.892;2022-12-07T18:17:05;9.61;11.89;7.53
47709;PMS7003;33473;51.640;5.892;2022-12-07T18:30:24;9.01;11.45;7.2
47709;PMS7003;33473;51.640;5.892;2022-12-07T18:43:44;10.33;12.65;7.64
47709;PMS7003;33473;51.640;5.892;2022-12-07T18:57:04;9.25;11.35;7.42
47709;PMS7003;33473;51.640;5.892;2022-12-07T19:10:23;9.49;11.89;7.64
47709;PMS7003;33473;51.640;5.892;2022-12-07T19:23:43;9.01;11.35;7.42
47709;PMS7003;33473;51.640;5.892;2022-12-07T19:37:03;8.17;10.58;7.31
47709;PMS7003;33473;51.640;5.892;2022-12-07T19:50:22;9.85;11.89;7.42
47709;PMS7003;33473;51.640;5.892;2022-12-07T20:03:42;10.57;11.89;7.53
47709;PMS7003;33473;51.640;5.892;2022-12-07T20:17:02;10.09;12.22;8.73
47709;PMS7003;33473;51.640;5.892;2022-12-07T20:30:21;11.89;14.07;8.84
47709;PMS7003;33473;51.640;5.892;2022-12-07T20:43:41;8.89;11.24;7.86
47709;PMS7003;33473;51.640;5.892;2022-12-07T20:57:00;12.13;11.02;7.09
47709;PMS7003;33473;51.640;5.892;2022-12-07T21:10:20;8.05;9.6;6.66
47709;PMS7003;33473;51.640;5.892;2022-12-07T21:23:40;6.73;9.17;6.22
47709;PMS7003;33473;51.640;5.892;2022-12-07T21:36:59;5.89;8.29;6.33
47709;PMS7003;33473;51.640;5.892;2022-12-07T21:50:19;5.65;8.18;5.79
47709;PMS7003;33473;51.640;5.892;2022-12-07T22:03:39;6.01;8.62;5.9
47709;PMS7003;33473;51.640;5.892;2022-12-07T22:16:59;5.41;8.08;5.79
47709;PMS7003;33473;51.640;5.892;2022-12-07T22:30:18;5.89;7.64;5.46
47709;PMS7003;33473;51.640;5.892;2022-12-07T22:43:38;5.17;7.86;5.24
47709;PMS7003;33473;51.640;5.892;2022-12-07T22:56:58;7.45;7.86;5.02
47709;PMS7003;33473;51.640;5.892;2022-12-07T23:10:17;5.29;7.42;5.02
47709;PMS7003;33473;51.640;5.892;2022-12-07T23:23:37;5.89;7.42;5.02
47709;PMS7003;33473;51.640;5.892;2022-12-07T23:36:57;6.73;9.38;6.44
47709;PMS7003;33473;51.640;5.892;2022-12-07T23:50:16;9.73;11.45;7.64
